Time;durP1;ratioP1;P1;durP2;ratioP2;P2;SDS_P1;SDS_P2;PMS_P1;PMS_P2;Temp;Humidity;BMP_temperature;BMP_pressure;BME280_temperature;BME280_humidity;BME280_pressure;Samples;Min_cycle;Max_cycle;Signal;HPM_P1;HPM_P2
2022/11/20 00:02:09;;;;;;;;;;;19.00;36.70;;;;;;5059360;28;19912;-63
2022/11/20 00:04:36;;;;;;;;;;;19.00;36.70;;;;;;5054755;28;19913;-62
2022/11/20 00:07:03;;;;;;;;;;;19.00;36.70;;;;;;5043887;28;19921;-62
2022/11/20 00:09:29;;;;;;;;;;;18.90;36.60;;;;;;5043847;28;19913;-62
2022/11/20 00:11:56;;;;;;;;;;;18.90;36.60;;;;;;5053293;28;19916;-63
2022/11/20 00:14:24;;;;;;;;;;;18.90;36.70;;;;;;5050042;28;19909;-63
2022/11/20 00:16:51;;;;;;;;;;;18.90;36.70;;;;;;5059810;28;19919;-62
2022/11/20 00:19:18;;;;;;;;;;;18.90;36.60;;;;;;5058076;28;19912;-62
2022/11/20 00:21:44;;;;;;;;;;;18.90;36.60;;;;;;5050604;28;19913;-62
2022/11/20 00:24:11;;;;;;;;;;;18.90;36.60;;;;;;5074544;28;19921;-62
2022/11/20 00:26:38;;;;;;;;;;;18.90;36.60;;;;;;5050318;28;19944;-62
2022/11/20 00:29:05;;;;;;;;;;;18.90;36.60;;;;;;5058301;28;19979;-62
2022/11/20 00:31:33;;;;;;;;;;;18.80;36.50;;;;;;5073942;28;20096;-62
2022/11/20 00:34:00;;;;;;;;;;;18.80;36.40;;;;;;5059509;28;19931;-62
2022/11/20 00:36:27;;;;;;;;;;;18.80;36.40;;;;;;5062956;28;19935;-62
2022/11/20 00:38:54;;;;;;;;;;;18.80;36.40;;;;;;5056308;28;19984;-62
2022/11/20 00:41:21;;;;;;;;;;;18.80;36.40;;;;;;5053800;28;19959;-63
2022/11/20 00:43:48;;;;;;;;;;;18.80;36.40;;;;;;5064228;28;19913;-62
2022/11/20 00:46:15;;;;;;;;;;;18.80;36.40;;;;;;5072974;28;19909;-62
2022/11/20 00:48:43;;;;;;;;;;;18.80;36.40;;;;;;5077667;28;19921;-62
2022/11/20 00:51:10;;;;;;;;;;;18.80;36.30;;;;;;5066174;28;19909;-63
2022/11/20 00:53:37;;;;;;;;;;;18.80;36.40;;;;;;5071368;28;19951;-62
2022/11/20 00:56:04;;;;;;;;;;;18.80;36.40;;;;;;5053729;28;19923;-62
2022/11/20 00:58:31;;;;;;;;;;;18.80;36.40;;;;;;5060814;28;19976;-63
2022/11/20 01:01:00;;;;;;;;;;;18.80;36.30;;;;;;5061372;28;19909;-63
2022/11/20 01:03:27;;;;;;;;;;;18.70;36.20;;;;;;5053134;28;19915;-62
2022/11/20 01:05:55;;;;;;;;;;;18.70;36.20;;;;;;5059675;28;19935;-63
2022/11/20 01:08:22;;;;;;;;;;;18.70;36.20;;;;;;5050375;28;19923;-63
2022/11/20 01:10:49;;;;;;;;;;;18.70;36.20;;;;;;5043720;28;19917;-63
2022/11/20 01:16:02;;;;;;;;;;;18.70;36.20;;;;;;5040930;28;19913;-63
2022/11/20 01:18:29;;;;;;;;;;;18.70;36.20;;;;;;5049519;28;19913;-63
2022/11/20 01:20:57;;;;;;;;;;;18.70;36.20;;;;;;5052695;28;19948;-63
2022/11/20 01:23:24;;;;;;;;;;;18.70;36.20;;;;;;5052214;28;19909;-63
2022/11/20 01:25:51;;;;;;;;;;;18.70;36.20;;;;;;5056215;28;19976;-63
2022/11/20 01:28:18;;;;;;;;;;;18.70;36.20;;;;;;5068008;28;19909;-63
2022/11/20 01:30:44;;;;;;;;;;;18.60;36.10;;;;;;5060628;28;19908;-62
2022/11/20 01:33:11;;;;;;;;;;;18.60;36.10;;;;;;5052578;28;19936;-63
2022/11/20 01:35:38;;;;;;;;;;;18.60;36.00;;;;;;5046929;28;19927;-63
2022/11/20 01:38:06;;;;;;;;;;;18.60;36.00;;;;;;5072259;28;19909;-63
2022/11/20 01:40:33;;;;;;;;;;;18.60;36.10;;;;;;5066673;28;19925;-63
2022/11/20 01:46:00;;;;;;;;;;;18.60;36.10;;;;;;5059174;28;19912;-63
2022/11/20 01:48:28;;;;;;;;;;;18.60;36.10;;;;;;5044564;28;19923;-63
2022/11/20 01:50:54;;;;;;;;;;;18.60;36.10;;;;;;5045023;28;19920;-63
2022/11/20 01:53:24;;;;;;;;;;;18.60;36.10;;;;;;5061996;28;19917;-63
2022/11/20 01:55:54;;;;;;;;;;;18.60;36.10;;;;;;5053619;28;19936;-63
2022/11/20 01:58:23;;;;;;;;;;;18.60;36.10;;;;;;5071378;28;19913;-63
2022/11/20 02:00:50;;;;;;;;;;;18.60;36.10;;;;;;5043054;28;19932;-63
2022/11/20 02:03:17;;;;;;;;;;;18.60;36.10;;;;;;5063206;28;19909;-62
2022/11/20 02:05:44;;;;;;;;;;;18.60;36.10;;;;;;5059691;28;19923;-62
2022/11/20 02:08:11;;;;;;;;;;;18.60;36.10;;;;;;5059649;28;19929;-62
2022/11/20 02:10:39;;;;;;;;;;;18.60;36.70;;;;;;5037401;28;19916;-63
2022/11/20 02:15:50;;;;;;;;;;;18.60;36.10;;;;;;5058803;28;19908;-63
2022/11/20 02:18:18;;;;;;;;;;;18.50;36.00;;;;;;5047452;28;20351;-63
2022/11/20 02:20:45;;;;;;;;;;;18.50;36.00;;;;;;5073414;28;19915;-63
2022/11/20 02:23:16;;;;;;;;;;;18.50;36.00;;;;;;5047455;28;19947;-63
2022/11/20 02:25:44;;;;;;;;;;;18.50;36.00;;;;;;5059583;28;19909;-63
2022/11/20 02:28:11;;;;;;;;;;;18.50;36.00;;;;;;5052292;28;19913;-63
2022/11/20 02:30:37;;;;;;;;;;;18.50;36.00;;;;;;5059333;28;19908;-63
2022/11/20 02:33:04;;;;;;;;;;;18.50;36.00;;;;;;5066402;28;19943;-63
2022/11/20 02:35:43;;;;;;;;;;;18.50;36.00;;;;;;5048213;28;19915;-63
2022/11/20 02:38:10;;;;;;;;;;;18.50;36.00;;;;;;5067009;28;19909;-62
2022/11/20 02:40:37;;;;;;;;;;;18.50;36.00;;;;;;5046119;28;19932;-63
2022/11/20 02:43:05;;;;;;;;;;;18.50;36.10;;;;;;5045800;28;19909;-63
2022/11/20 02:45:32;;;;;;;;;;;18.50;36.10;;;;;;5069769;28;19915;-63
2022/11/20 02:47:59;;;;;;;;;;;18.50;36.10;;;;;;5059719;28;19924;-63
2022/11/20 02:50:25;;;;;;;;;;;18.50;36.00;;;;;;5066673;28;19909;-63
2022/11/20 02:52:52;;;;;;;;;;;18.50;36.00;;;;;;5049471;28;19980;-63
2022/11/20 02:55:19;;;;;;;;;;;18.50;36.00;;;;;;5055864;28;19915;-63
2022/11/20 02:57:46;;;;;;;;;;;18.50;36.00;;;;;;5042504;28;19913;-63
2022/11/20 03:00:14;;;;;;;;;;;18.50;36.00;;;;;;5050188;28;19917;-63
2022/11/20 03:02:42;;;;;;;;;;;18.40;35.90;;;;;;5058600;28;19931;-63
2022/11/20 03:05:09;;;;;;;;;;;18.50;36.00;;;;;;5058400;28;19921;-63
2022/11/20 03:07:36;;;;;;;;;;;18.40;35.90;;;;;;5043528;28;19913;-63
2022/11/20 03:10:04;;;;;;;;;;;18.40;35.80;;;;;;5059995;28;19976;-63
2022/11/20 03:12:31;;;;;;;;;;;18.40;35.80;;;;;;5073384;28;19915;-63
2022/11/20 03:15:00;;;;;;;;;;;18.40;35.80;;;;;;5053641;28;19913;-63
2022/11/20 03:17:26;;;;;;;;;;;18.40;35.80;;;;;;5061406;28;19916;-63
2022/11/20 03:19:55;;;;;;;;;;;18.40;35.80;;;;;;5047789;28;19927;-63
2022/11/20 03:22:23;;;;;;;;;;;18.40;35.80;;;;;;5073662;28;19931;-63
2022/11/20 03:24:50;;;;;;;;;;;18.40;35.80;;;;;;5045471;28;19939;-63
2022/11/20 03:27:17;;;;;;;;;;;18.40;35.80;;;;;;5058292;28;19924;-63
2022/11/20 03:29:44;;;;;;;;;;;18.40;35.80;;;;;;5048905;28;19909;-63
2022/11/20 03:32:11;;;;;;;;;;;18.40;35.80;;;;;;5073628;28;19920;-62
2022/11/20 03:34:38;;;;;;;;;;;18.40;35.80;;;;;;5059888;28;19935;-63
2022/11/20 03:37:07;;;;;;;;;;;18.40;35.80;;;;;;5049515;28;19939;-63
2022/11/20 03:39:33;;;;;;;;;;;18.40;35.80;;;;;;5074006;28;19909;-62
2022/11/20 03:42:00;;;;;;;;;;;18.40;35.80;;;;;;5063164;28;19910;-62
2022/11/20 03:44:27;;;;;;;;;;;18.40;35.70;;;;;;5040973;28;19935;-62
2022/11/20 03:46:54;;;;;;;;;;;18.40;36.30;;;;;;5044374;28;19935;-62
2022/11/20 03:49:20;;;;;;;;;;;18.40;35.70;;;;;;5046455;28;19909;-62
2022/11/20 03:51:53;;;;;;;;;;;18.40;35.80;;;;;;5072146;28;19909;-61
2022/11/20 03:54:21;;;;;;;;;;;18.40;35.80;;;;;;5047504;28;19909;-62
2022/11/20 03:56:48;;;;;;;;;;;18.40;35.80;;;;;;5048261;28;19921;-62
2022/11/20 03:59:14;;;;;;;;;;;18.30;35.70;;;;;;5046440;28;19943;-62
2022/11/20 04:01:41;;;;;;;;;;;18.30;35.70;;;;;;5049269;28;19909;-62
2022/11/20 04:04:08;;;;;;;;;;;18.30;35.70;;;;;;5057142;28;19909;-62
2022/11/20 04:06:35;;;;;;;;;;;18.30;35.70;;;;;;5049364;28;19941;-62
2022/11/20 04:09:02;;;;;;;;;;;18.30;35.80;;;;;;5052092;28;19916;-62
2022/11/20 04:11:30;;;;;;;;;;;18.30;35.70;;;;;;5074326;28;19976;-62
2022/11/20 04:13:57;;;;;;;;;;;18.30;35.70;;;;;;5053708;28;19909;-62
2022/11/20 04:16:24;;;;;;;;;;;18.30;35.70;;;;;;5054406;28;19972;-62
2022/11/20 04:18:52;;;;;;;;;;;18.30;35.70;;;;;;5078100;28;19947;-63
2022/11/20 04:21:19;;;;;;;;;;;18.30;35.70;;;;;;5060994;28;19913;-63
2022/11/20 04:23:46;;;;;;;;;;;18.30;35.70;;;;;;5066661;28;19952;-63
2022/11/20 04:26:13;;;;;;;;;;;18.30;35.70;;;;;;5049645;28;19913;-63
2022/11/20 04:28:41;;;;;;;;;;;18.30;35.70;;;;;;5048596;28;19909;-63
2022/11/20 04:31:08;;;;;;;;;;;18.30;35.70;;;;;;5043693;28;19916;-63
2022/11/20 04:33:35;;;;;;;;;;;18.30;35.70;;;;;;5048179;28;19925;-63
2022/11/20 04:36:03;;;;;;;;;;;18.30;35.70;;;;;;5042710;28;19932;-63
2022/11/20 04:38:29;;;;;;;;;;;18.30;35.70;;;;;;5058249;28;19908;-63
2022/11/20 04:40:57;;;;;;;;;;;18.30;35.70;;;;;;5044443;28;19920;-63
2022/11/20 04:43:24;;;;;;;;;;;18.30;35.70;;;;;;5067671;28;19912;-62
2022/11/20 04:45:52;;;;;;;;;;;18.30;35.60;;;;;;5033864;28;19909;-63
2022/11/20 04:48:19;;;;;;;;;;;18.30;35.70;;;;;;5046257;28;19909;-63
2022/11/20 04:50:46;;;;;;;;;;;18.30;35.60;;;;;;5049573;28;19917;-63
2022/11/20 04:53:13;;;;;;;;;;;18.30;35.60;;;;;;5052860;28;19908;-63
2022/11/20 04:55:39;;;;;;;;;;;18.30;35.60;;;;;;5045582;28;19913;-63
2022/11/20 04:58:06;;;;;;;;;;;18.30;35.60;;;;;;5052148;28;19939;-63
2022/11/20 05:00:33;;;;;;;;;;;18.30;35.60;;;;;;5055553;28;19909;-63
2022/11/20 05:03:01;;;;;;;;;;;18.30;35.60;;;;;;5038229;28;19913;-63
2022/11/20 05:05:28;;;;;;;;;;;18.20;35.40;;;;;;5040895;28;19924;-63
2022/11/20 05:07:56;;;;;;;;;;;18.30;35.60;;;;;;5051549;28;19913;-63
2022/11/20 05:10:23;;;;;;;;;;;18.20;35.40;;;;;;5052451;28;19909;-63
2022/11/20 05:12:49;;;;;;;;;;;18.30;35.50;;;;;;5051705;28;19933;-63
2022/11/20 05:15:16;;;;;;;;;;;18.30;35.50;;;;;;5057385;28;19932;-63
2022/11/20 05:17:47;;;;;;;;;;;18.20;35.40;;;;;;5057139;28;19947;-63
2022/11/20 05:20:15;;;;;;;;;;;18.20;35.40;;;;;;5046908;28;19916;-63
2022/11/20 05:22:42;;;;;;;;;;;18.20;35.40;;;;;;5042717;28;19940;-63
2022/11/20 05:25:09;;;;;;;;;;;18.20;35.40;;;;;;5049709;28;19913;-63
2022/11/20 05:27:36;;;;;;;;;;;18.20;35.40;;;;;;5049267;28;19909;-63
2022/11/20 05:30:03;;;;;;;;;;;18.20;35.40;;;;;;5047698;28;19972;-63
2022/11/20 05:32:29;;;;;;;;;;;18.20;35.40;;;;;;5045862;28;19909;-62
2022/11/20 05:34:56;;;;;;;;;;;18.20;35.40;;;;;;5045402;28;19924;-63
2022/11/20 05:37:24;;;;;;;;;;;18.20;35.40;;;;;;5052930;28;19913;-63
2022/11/20 05:39:51;;;;;;;;;;;18.20;35.40;;;;;;5056406;28;19923;-63
2022/11/20 05:42:33;;;;;;;;;;;18.20;36.00;;;;;;5048752;28;19909;-63
2022/11/20 05:45:03;;;;;;;;;;;18.20;35.40;;;;;;5048623;28;19932;-63
2022/11/20 05:47:32;;;;;;;;;;;18.20;35.40;;;;;;5054425;28;19939;-63
2022/11/20 05:49:59;;;;;;;;;;;18.20;35.40;;;;;;5044539;28;19909;-63
2022/11/20 05:52:28;;;;;;;;;;;18.20;35.40;;;;;;5072618;28;19909;-63
2022/11/20 05:54:55;;;;;;;;;;;18.20;35.40;;;;;;5043587;28;19913;-62
2022/11/20 05:57:22;;;;;;;;;;;18.20;35.40;;;;;;5047810;28;19924;-62
2022/11/20 05:59:49;;;;;;;;;;;18.20;35.40;;;;;;5068275;28;19909;-63
2022/11/20 06:02:15;;;;;;;;;;;18.20;35.40;;;;;;5051500;28;19921;-63
2022/11/20 06:04:42;;;;;;;;;;;18.20;35.30;;;;;;5046634;28;19913;-63
2022/11/20 06:07:09;;;;;;;;;;;18.10;35.20;;;;;;5055778;28;19920;-63
2022/11/20 06:09:37;;;;;;;;;;;18.10;35.20;;;;;;5066856;28;19992;-62
2022/11/20 06:12:04;;;;;;;;;;;18.10;35.20;;;;;;5049994;28;19909;-62
2022/11/20 06:14:31;;;;;;;;;;;18.20;35.30;;;;;;5049011;28;19931;-63
2022/11/20 06:16:58;;;;;;;;;;;18.20;35.30;;;;;;5049644;28;19913;-62
2022/11/20 06:19:24;;;;;;;;;;;18.10;35.20;;;;;;5044716;28;19924;-62
2022/11/20 06:21:51;;;;;;;;;;;18.10;35.10;;;;;;5047815;28;19980;-63
2022/11/20 06:24:18;;;;;;;;;;;18.10;35.20;;;;;;5059370;28;19916;-62
2022/11/20 06:26:46;;;;;;;;;;;18.10;35.20;;;;;;5059018;28;19909;-63
2022/11/20 06:29:13;;;;;;;;;;;18.10;35.20;;;;;;5052549;28;19945;-63
2022/11/20 06:31:42;;;;;;;;;;;18.20;35.30;;;;;;5057015;28;19913;-63
2022/11/20 06:34:08;;;;;;;;;;;18.20;35.20;;;;;;5056161;28;19936;-63
2022/11/20 06:36:35;;;;;;;;;;;18.10;35.10;;;;;;5054060;28;19913;-63
2022/11/20 06:39:02;;;;;;;;;;;18.10;35.10;;;;;;5054598;28;19909;-63
2022/11/20 06:41:29;;;;;;;;;;;18.10;35.10;;;;;;5047954;28;19913;-63
2022/11/20 06:43:57;;;;;;;;;;;18.10;35.10;;;;;;5041258;28;19914;-64
2022/11/20 06:46:24;;;;;;;;;;;18.10;35.10;;;;;;5043221;28;19915;-62
2022/11/20 06:48:51;;;;;;;;;;;18.10;35.10;;;;;;5042856;28;19936;-62
2022/11/20 06:51:18;;;;;;;;;;;18.10;35.10;;;;;;5042850;28;19939;-62
2022/11/20 06:53:44;;;;;;;;;;;18.10;35.10;;;;;;5050927;28;19912;-62
2022/11/20 06:56:11;;;;;;;;;;;18.10;35.10;;;;;;5043367;28;19916;-62
2022/11/20 06:58:38;;;;;;;;;;;18.10;35.10;;;;;;5053716;28;19909;-63
2022/11/20 07:01:07;;;;;;;;;;;18.10;35.10;;;;;;5064157;28;19941;-63
2022/11/20 07:03:33;;;;;;;;;;;18.10;35.20;;;;;;5050554;28;19913;-62
2022/11/20 07:06:00;;;;;;;;;;;18.10;35.20;;;;;;5058063;28;19940;-62
2022/11/20 07:08:27;;;;;;;;;;;18.10;35.10;;;;;;5049142;28;19940;-62
2022/11/20 07:10:57;;;;;;;;;;;18.10;35.10;;;;;;5048347;28;19909;-63
2022/11/20 07:13:24;;;;;;;;;;;18.10;35.10;;;;;;5059693;28;19908;-63
2022/11/20 07:15:51;;;;;;;;;;;18.10;35.10;;;;;;5068305;28;19922;-62
2022/11/20 07:18:19;;;;;;;;;;;18.10;35.10;;;;;;5062105;28;19917;-63
2022/11/20 07:20:46;;;;;;;;;;;18.10;35.20;;;;;;5058046;28;19931;-63
2022/11/20 07:23:12;;;;;;;;;;;18.10;35.20;;;;;;5053905;28;19923;-64
2022/11/20 07:25:39;;;;;;;;;;;18.00;35.10;;;;;;5039593;28;19909;-63
2022/11/20 07:28:06;;;;;;;;;;;18.00;35.10;;;;;;5059509;28;19976;-63
2022/11/20 07:30:33;;;;;;;;;;;18.00;35.10;;;;;;5047131;28;19924;-62
2022/11/20 07:32:59;;;;;;;;;;;18.10;35.20;;;;;;5052587;28;19915;-62
2022/11/20 07:35:28;;;;;;;;;;;18.00;35.10;;;;;;5064795;28;19909;-62
2022/11/20 07:37:55;;;;;;;;;;;18.00;35.10;;;;;;5069162;28;19912;-62
2022/11/20 07:40:22;;;;;;;;;;;18.00;35.20;;;;;;5055124;28;19920;-62
2022/11/20 07:42:49;;;;;;;;;;;18.00;35.30;;;;;;5063000;28;19913;-62
2022/11/20 07:45:16;;;;;;;;;;;18.00;35.30;;;;;;5067031;28;19909;-62
2022/11/20 07:47:43;;;;;;;;;;;18.10;35.50;;;;;;5053076;28;19927;-61
2022/11/20 07:50:10;;;;;;;;;;;18.00;36.00;;;;;;5077730;28;19909;-62
2022/11/20 07:52:38;;;;;;;;;;;18.00;35.40;;;;;;5068750;28;19916;-63
2022/11/20 07:55:05;;;;;;;;;;;18.10;35.50;;;;;;5054175;28;19909;-62
2022/11/20 07:57:32;;;;;;;;;;;18.00;35.40;;;;;;5040066;28;19913;-62
2022/11/20 07:59:59;;;;;;;;;;;18.00;35.40;;;;;;5076665;28;19947;-62
2022/11/20 08:02:26;;;;;;;;;;;18.00;36.00;;;;;;5071175;28;19968;-63
2022/11/20 08:04:52;;;;;;;;;;;18.00;35.40;;;;;;5044445;28;19909;-62
2022/11/20 08:07:19;;;;;;;;;;;18.00;35.50;;;;;;5053445;28;19932;-62
2022/11/20 08:09:47;;;;;;;;;;;18.10;35.60;;;;;;5078095;28;19915;-62
2022/11/20 08:15:00;;;;;;;;;;;18.00;35.50;;;;;;5021236;28;19909;-63
2022/11/20 08:17:27;;;;;;;;;;;18.10;35.60;;;;;;5072674;28;19917;-62
2022/11/20 08:19:54;;;;;;;;;;;18.10;35.60;;;;;;5067589;28;19935;-62
2022/11/20 08:22:21;;;;;;;;;;;18.10;35.60;;;;;;5051061;28;19909;-62
2022/11/20 08:24:49;;;;;;;;;;;18.00;35.50;;;;;;5052674;28;19909;-63
2022/11/20 08:27:16;;;;;;;;;;;18.10;35.50;;;;;;5048513;28;19916;-62
2022/11/20 08:29:42;;;;;;;;;;;18.10;35.50;;;;;;5044468;28;19915;-62
2022/11/20 08:32:09;;;;;;;;;;;18.00;35.40;;;;;;5045412;28;19916;-62
2022/11/20 08:34:36;;;;;;;;;;;18.00;35.40;;;;;;5044978;28;19980;-63
2022/11/20 08:37:03;;;;;;;;;;;18.10;35.50;;;;;;5047051;28;19912;-63
2022/11/20 08:39:29;;;;;;;;;;;18.00;35.40;;;;;;5070574;28;19939;-62
2022/11/20 08:42:00;;;;;;;;;;;18.00;35.30;;;;;;5051272;28;19909;-62
2022/11/20 08:44:27;;;;;;;;;;;18.00;35.30;;;;;;5058224;28;19939;-62
2022/11/20 08:46:56;;;;;;;;;;;18.00;35.30;;;;;;5059122;28;19916;-63
2022/11/20 08:49:23;;;;;;;;;;;18.00;35.30;;;;;;5073737;28;19909;-62
2022/11/20 08:51:53;;;;;;;;;;;18.00;35.30;;;;;;5057668;28;19916;-62
2022/11/20 08:54:21;;;;;;;;;;;18.00;35.30;;;;;;5060045;28;19913;-62
2022/11/20 08:56:48;;;;;;;;;;;18.00;35.30;;;;;;5057609;28;19936;-62
2022/11/20 08:59:16;;;;;;;;;;;18.00;35.30;;;;;;5077725;28;19968;-62
2022/11/20 09:01:43;;;;;;;;;;;18.00;35.30;;;;;;5056668;28;19909;-63
2022/11/20 09:04:11;;;;;;;;;;;18.00;35.30;;;;;;5071517;28;19932;-63
2022/11/20 09:06:38;;;;;;;;;;;18.00;35.30;;;;;;5057352;28;19940;-63
2022/11/20 09:09:05;;;;;;;;;;;18.00;35.30;;;;;;5070550;28;19923;-63
2022/11/20 09:11:34;;;;;;;;;;;18.00;35.30;;;;;;5048179;28;19913;-63
2022/11/20 09:14:02;;;;;;;;;;;18.00;35.40;;;;;;5055597;28;19909;-63
2022/11/20 09:16:30;;;;;;;;;;;18.00;35.40;;;;;;5061454;28;19912;-63
2022/11/20 09:18:57;;;;;;;;;;;18.00;35.40;;;;;;5070496;28;19916;-63
2022/11/20 09:21:24;;;;;;;;;;;18.00;35.40;;;;;;5050559;28;19940;-63
2022/11/20 09:23:51;;;;;;;;;;;18.00;35.50;;;;;;5053258;28;19972;-63
2022/11/20 09:26:17;;;;;;;;;;;18.00;35.50;;;;;;5023765;28;19909;-63
2022/11/20 09:28:44;;;;;;;;;;;18.00;35.40;;;;;;5045695;28;19916;-63
2022/11/20 09:31:15;;;;;;;;;;;18.00;35.20;;;;;;5046686;28;19913;-63
2022/11/20 09:33:43;;;;;;;;;;;17.90;35.00;;;;;;5059503;28;19909;-63
2022/11/20 09:36:10;;;;;;;;;;;17.90;34.90;;;;;;5047407;28;19909;-63
2022/11/20 09:38:37;;;;;;;;;;;17.90;34.90;;;;;;5040795;28;19920;-63
2022/11/20 09:41:04;;;;;;;;;;;17.80;34.90;;;;;;5047803;28;19910;-63
2022/11/20 09:43:33;;;;;;;;;;;17.80;35.00;;;;;;5043535;28;19941;-63
2022/11/20 09:46:03;;;;;;;;;;;17.80;35.20;;;;;;5060548;28;19917;-63
2022/11/20 09:48:35;;;;;;;;;;;17.80;35.20;;;;;;5040634;28;19909;-63
2022/11/20 09:51:05;;;;;;;;;;;17.90;35.40;;;;;;5038041;28;19916;-63
2022/11/20 09:53:35;;;;;;;;;;;17.80;35.40;;;;;;5031379;28;19915;-63
2022/11/20 09:56:02;;;;;;;;;;;17.90;35.60;;;;;;5054958;28;19940;-63
2022/11/20 09:58:31;;;;;;;;;;;17.90;35.60;;;;;;5045136;28;19917;-63
2022/11/20 10:01:00;;;;;;;;;;;17.90;35.70;;;;;;5042578;28;19913;-63
2022/11/20 10:03:30;;;;;;;;;;;17.90;35.70;;;;;;5042709;28;19920;-62
2022/11/20 10:05:57;;;;;;;;;;;17.90;35.80;;;;;;5042846;28;19913;-63
2022/11/20 10:08:25;;;;;;;;;;;17.90;35.80;;;;;;5041784;28;19916;-63
2022/11/20 10:10:54;;;;;;;;;;;18.00;35.90;;;;;;5042264;28;19909;-63
2022/11/20 10:13:33;;;;;;;;;;;17.90;35.90;;;;;;5041770;28;19910;-63
2022/11/20 10:16:04;;;;;;;;;;;17.90;35.90;;;;;;5028667;28;19917;-63
2022/11/20 10:18:35;;;;;;;;;;;17.90;35.90;;;;;;5039133;28;19981;-62
2022/11/20 10:21:04;;;;;;;;;;;17.90;35.90;;;;;;5034333;28;19914;-67
2022/11/20 10:23:35;;;;;;;;;;;18.00;36.00;;;;;;5042965;28;19916;-67
2022/11/20 10:26:02;;;;;;;;;;;18.00;36.30;;;;;;5026785;28;19973;-67
2022/11/20 10:28:31;;;;;;;;;;;18.00;36.50;;;;;;5042892;28;19924;-68
2022/11/20 10:30:58;;;;;;;;;;;18.00;36.90;;;;;;5058329;28;19921;-67
2022/11/20 10:33:25;;;;;;;;;;;18.10;37.20;;;;;;5059401;28;19919;-67
2022/11/20 10:35:53;;;;;;;;;;;18.10;37.40;;;;;;5047026;28;19908;-67
2022/11/20 10:38:22;;;;;;;;;;;18.10;37.50;;;;;;5042241;28;19941;-67
2022/11/20 10:40:52;;;;;;;;;;;18.20;37.70;;;;;;5042233;28;19913;-68
2022/11/20 10:43:19;;;;;;;;;;;18.20;37.80;;;;;;5059050;28;19935;-67
2022/11/20 10:45:48;;;;;;;;;;;18.20;37.80;;;;;;5027470;28;19936;-66
2022/11/20 10:48:20;;;;;;;;;;;18.30;38.00;;;;;;5023383;28;19909;-67
2022/11/20 10:50:58;;;;;;;;;;;18.30;38.00;;;;;;5046989;28;19913;-67
2022/11/20 10:53:31;;;;;;;;;;;18.30;38.00;;;;;;5061448;28;19916;-67
2022/11/20 10:56:01;;;;;;;;;;;18.40;38.60;;;;;;5041789;28;19909;-68
2022/11/20 10:58:30;;;;;;;;;;;18.40;38.10;;;;;;5045301;28;19909;-68
2022/11/20 11:01:04;;;;;;;;;;;18.40;38.10;;;;;;5042683;28;19909;-67
2022/11/20 11:03:31;;;;;;;;;;;18.40;38.10;;;;;;5055269;28;19951;-67
2022/11/20 11:06:00;;;;;;;;;;;18.40;38.70;;;;;;5051358;28;19944;-67
2022/11/20 11:08:27;;;;;;;;;;;18.40;38.10;;;;;;5045621;28;19913;-67
2022/11/20 11:10:54;;;;;;;;;;;18.50;38.30;;;;;;5052504;28;19913;-67
2022/11/20 11:13:23;;;;;;;;;;;18.50;38.30;;;;;;5075022;28;19947;-67
2022/11/20 11:15:50;;;;;;;;;;;18.50;38.30;;;;;;5056909;28;19909;-67
2022/11/20 11:18:23;;;;;;;;;;;18.50;38.30;;;;;;5060050;28;19912;-67
2022/11/20 11:20:50;;;;;;;;;;;18.50;38.30;;;;;;5062965;28;19944;-67
2022/11/20 11:23:23;;;;;;;;;;;18.50;38.30;;;;;;5060827;28;19909;-67
2022/11/20 11:25:57;;;;;;;;;;;18.50;38.30;;;;;;5040486;28;19910;-68
2022/11/20 11:28:27;;;;;;;;;;;18.60;38.40;;;;;;5060164;28;19912;-68
2022/11/20 11:30:53;;;;;;;;;;;18.60;38.50;;;;;;5059953;28;19916;-68
2022/11/20 11:33:21;;;;;;;;;;;18.60;38.50;;;;;;5050577;28;19921;-68
2022/11/20 11:35:48;;;;;;;;;;;18.60;38.50;;;;;;5041359;28;19917;-68
2022/11/20 11:38:16;;;;;;;;;;;18.60;38.50;;;;;;5062107;28;19909;-68
2022/11/20 11:40:43;;;;;;;;;;;18.60;38.50;;;;;;5035508;28;19932;-68
2022/11/20 11:45:04;;;;;;;;;;;18.60;38.60;;;;;;5059745;28;19913;-68
2022/11/20 11:46:06;;;;;;;;;;;18.60;38.60;;;;;;5068003;28;19925;-68
2022/11/20 11:48:33;;;;;;;;;;;18.60;38.60;;;;;;5043323;28;19909;-68
2022/11/20 11:51:00;;;;;;;;;;;18.60;38.70;;;;;;5047904;28;19909;-68
2022/11/20 11:53:26;;;;;;;;;;;18.60;38.70;;;;;;5039773;28;19916;-68
2022/11/20 11:55:55;;;;;;;;;;;18.60;38.70;;;;;;5047504;28;19913;-68
2022/11/20 11:58:29;;;;;;;;;;;18.60;38.70;;;;;;5062634;28;19909;-69
2022/11/20 12:00:58;;;;;;;;;;;18.60;38.70;;;;;;5073419;28;19912;-68
2022/11/20 12:03:28;;;;;;;;;;;18.60;38.70;;;;;;5057953;28;19933;-68
2022/11/20 12:05:56;;;;;;;;;;;18.60;38.70;;;;;;5050382;28;19909;-68
2022/11/20 12:08:24;;;;;;;;;;;18.60;38.70;;;;;;5042566;28;19913;-68
2022/11/20 12:10:51;;;;;;;;;;;18.70;38.80;;;;;;5053074;28;19931;-68
2022/11/20 12:13:28;;;;;;;;;;;18.70;38.90;;;;;;5066951;28;19909;-68
2022/11/20 12:15:55;;;;;;;;;;;18.70;38.90;;;;;;5050477;28;19923;-68
2022/11/20 12:18:22;;;;;;;;;;;18.70;38.90;;;;;;5047447;28;19917;-68
2022/11/20 12:20:53;;;;;;;;;;;18.70;38.90;;;;;;5076728;28;19909;-67
2022/11/20 12:23:22;;;;;;;;;;;18.70;39.00;;;;;;5060763;28;19940;-68
2022/11/20 12:25:49;;;;;;;;;;;18.70;39.00;;;;;;5068420;28;19932;-67
2022/11/20 12:28:21;;;;;;;;;;;18.70;39.00;;;;;;5052547;28;19913;-67
2022/11/20 12:30:50;;;;;;;;;;;18.70;39.00;;;;;;5045277;28;19909;-67
2022/11/20 12:33:19;;;;;;;;;;;18.70;39.10;;;;;;5047031;28;19909;-68
2022/11/20 12:35:54;;;;;;;;;;;18.70;39.10;;;;;;5047223;28;19916;-67
2022/11/20 12:38:37;;;;;;;;;;;18.70;39.10;;;;;;5049667;28;19909;-67
2022/11/20 12:41:04;;;;;;;;;;;18.70;39.10;;;;;;5066399;28;19975;-67
2022/11/20 12:46:19;;;;;;;;;;;18.70;39.20;;;;;;5037875;28;19973;-66
2022/11/20 12:48:49;;;;;;;;;;;18.70;39.20;;;;;;5071469;28;19979;-68
2022/11/20 12:51:25;;;;;;;;;;;18.70;39.20;;;;;;5053557;28;19909;-67
2022/11/20 12:53:55;;;;;;;;;;;18.70;39.20;;;;;;5046268;28;19924;-67
2022/11/20 12:56:24;;;;;;;;;;;18.70;39.20;;;;;;5059729;28;19951;-68
2022/11/20 12:58:54;;;;;;;;;;;18.70;39.20;;;;;;5060684;28;19913;-67
2022/11/20 13:04:07;;;;;;;;;;;18.70;39.30;;;;;;5059803;28;19913;-68
2022/11/20 13:06:35;;;;;;;;;;;18.70;39.30;;;;;;5050425;28;19932;-68
2022/11/20 13:09:02;;;;;;;;;;;18.80;39.40;;;;;;5040137;28;19952;-68
2022/11/20 13:11:32;;;;;;;;;;;18.80;39.40;;;;;;5055071;28;19931;-66
2022/11/20 13:14:20;;;;;;;;;;;18.80;39.40;;;;;;5056730;28;19937;-67
2022/11/20 13:16:48;;;;;;;;;;;18.80;39.40;;;;;;5037367;28;19947;-67
2022/11/20 13:19:16;;;;;;;;;;;18.80;39.50;;;;;;5050703;28;19913;-67
2022/11/20 13:21:46;;;;;;;;;;;18.80;39.40;;;;;;5057993;28;19980;-67
2022/11/20 13:24:22;;;;;;;;;;;18.80;39.50;;;;;;5051998;28;19940;-67
2022/11/20 13:26:49;;;;;;;;;;;18.80;39.50;;;;;;5048974;28;19909;-68
2022/11/20 13:29:17;;;;;;;;;;;18.70;39.40;;;;;;5044053;28;19984;-67
2022/11/20 13:31:44;;;;;;;;;;;18.80;39.50;;;;;;5046832;28;19921;-68
2022/11/20 13:34:12;;;;;;;;;;;18.80;39.50;;;;;;5047519;28;19919;-67
2022/11/20 13:36:39;;;;;;;;;;;18.80;39.50;;;;;;5042053;28;19909;-68
2022/11/20 13:39:09;;;;;;;;;;;18.80;39.50;;;;;;5043367;28;19913;-68
2022/11/20 13:41:37;;;;;;;;;;;18.80;39.50;;;;;;5060268;28;19936;-67
2022/11/20 13:44:14;;;;;;;;;;;18.80;39.50;;;;;;5026495;28;19914;-68
2022/11/20 13:46:43;;;;;;;;;;;18.80;39.60;;;;;;5034379;28;19919;-66
2022/11/20 13:49:10;;;;;;;;;;;18.80;39.60;;;;;;5040432;28;19932;-67
2022/11/20 13:51:38;;;;;;;;;;;18.80;39.60;;;;;;5031593;28;19913;-69
2022/11/20 13:54:12;;;;;;;;;;;18.80;39.60;;;;;;5046905;28;19916;-70
2022/11/20 13:56:41;;;;;;;;;;;18.80;39.60;;;;;;5070828;28;19928;-68
2022/11/20 13:59:10;;;;;;;;;;;18.80;39.60;;;;;;5049077;28;19913;-70
2022/11/20 14:01:36;;;;;;;;;;;18.80;39.60;;;;;;5077356;28;19913;-67
2022/11/20 14:04:08;;;;;;;;;;;18.80;39.60;;;;;;5054364;28;19921;-68
2022/11/20 14:06:36;;;;;;;;;;;18.80;39.60;;;;;;5060151;28;19939;-70
2022/11/20 14:09:03;;;;;;;;;;;18.80;39.70;;;;;;5050151;28;19916;-71
2022/11/20 14:11:33;;;;;;;;;;;18.90;39.80;;;;;;5049691;28;19964;-68
2022/11/20 14:14:00;;;;;;;;;;;18.80;39.70;;;;;;5069739;28;19909;-70
2022/11/20 14:16:27;;;;;;;;;;;18.90;39.80;;;;;;5050669;28;19909;-70
2022/11/20 14:18:54;;;;;;;;;;;18.90;39.80;;;;;;5049793;28;19972;-71
2022/11/20 14:21:28;;;;;;;;;;;18.90;39.70;;;;;;5074077;28;19913;-70
2022/11/20 14:23:55;;;;;;;;;;;18.90;39.80;;;;;;5055059;28;19931;-69
2022/11/20 14:26:22;;;;;;;;;;;18.90;39.80;;;;;;5072272;28;19908;-70
2022/11/20 14:28:51;;;;;;;;;;;18.90;39.80;;;;;;5054719;28;19916;-69
2022/11/20 14:31:19;;;;;;;;;;;18.90;40.30;;;;;;5049481;28;19939;-69
2022/11/20 14:33:46;;;;;;;;;;;18.90;39.80;;;;;;5060335;28;19909;-69
2022/11/20 14:36:17;;;;;;;;;;;18.90;39.80;;;;;;5076315;28;19916;-69
2022/11/20 14:38:54;;;;;;;;;;;19.00;39.90;;;;;;5079704;28;19916;-69